アトランタ の空港の天気 - METARとTAF

ハーツフィールド・ジャクソン・アトランタ国際空港 ( KATL / ATL ) - アメリカ ジョージア州アトランタ
飛行場実況気象(Metar)
観測時間02/17 09:52 EST (02/17 14:52 UTC)
風向・風速東 6m/s
視程3200m
天気現象もや
全天を覆う雲 雲底高度 120m
気温9.4℃
湿度90%
気圧1014.2hPa
METARKATL 171452Z 10011KT 2SM BR OVC004 09/08 A2995 RMK AO2 SFC VIS 5 SLP142 TWRINC 60000 T00940078 50011
過去の天気等 Google飛行場航空写真 Wunderground天気予報

過去48時間のMETAR

飛行場予報(TAF)
発表時間: 2/17 09:04 EST (2/17 14:04 UTC)
予報対象時間: 17日9時 EST ~ 18日13時 EST
風向・風速東 5m/s
視程10km以上
天気現象もや 周辺でしゅう雨
全天を覆う雲 雲底高度 150m
17日9時 EST ~ 17日11時 EST に一時的に
視程4830m
天気現象弱い雨 もや
全天を覆う雲 雲底高度 90m
17日13時 EST から
風向・風速南東 5m/s
視程10km以上
天気現象弱い雨 もや
全天を覆う雲 雲底高度 180m
17日22時 EST から
風向・風速南 5m/s
視程6440m
天気現象弱い雨 もや
全天の8割程度の雲 雲底高度 240m
18日1時 EST から
風向・風速北西 6m/s
視程10km以上
天気現象周辺でしゅう雨
全天の8割程度の雲 雲底高度 240m
18日8時 EST から
風向・風速北西 6m/s 瞬間風速 10m/s
視程10km以上
全天の4割程度の雲 雲底高度 460m
全天の8割程度の雲 雲底高度 1070m
KATL 171404Z 1714/1818 10009KT 6SM BR VCSH OVC005
TEMPO 1714/1716 3SM -RA BR OVC003
FM171800 13010KT 6SM -RA BR OVC006
FM180300 19010KT 4SM -RA BR BKN008
FM180600 32012KT P6SM VCSH BKN008
FM181300 32012G20KT P6SM SCT015 BKN035